sensor_id;sensor_type;location;lat;lon;timestamp;temperature;humidity
21255;DHT22;10785;50.674;17.954;2023-04-03T00:02:09;2.90;99.90
21255;DHT22;10785;50.674;17.954;2023-04-03T00:04:38;2.90;99.90
21255;DHT22;10785;50.674;17.954;2023-04-03T00:07:07;2.90;99.90
21255;DHT22;10785;50.674;17.954;2023-04-03T00:09:36;2.90;99.90
21255;DHT22;10785;50.674;17.954;2023-04-03T00:12:04;2.90;99.90
21255;DHT22;10785;50.674;17.954;2023-04-03T00:14:33;2.90;99.90
21255;DHT22;10785;50.674;17.954;2023-04-03T00:17:03;2.80;99.90
21255;DHT22;10785;50.674;17.954;2023-04-03T00:19:32;2.80;99.90
21255;DHT22;10785;50.674;17.954;2023-04-03T00:22:00;2.80;99.90
21255;DHT22;10785;50.674;17.954;2023-04-03T00:24:29;2.80;99.90
21255;DHT22;10785;50.674;17.954;2023-04-03T00:26:57;2.70;99.90
21255;DHT22;10785;50.674;17.954;2023-04-03T00:29:26;2.70;99.90
21255;DHT22;10785;50.674;17.954;2023-04-03T00:31:55;2.70;99.90
21255;DHT22;10785;50.674;17.954;2023-04-03T00:34:25;2.70;99.90
21255;DHT22;10785;50.674;17.954;2023-04-03T00:36:53;2.70;99.90
21255;DHT22;10785;50.674;17.954;2023-04-03T00:39:22;2.70;99.90
21255;DHT22;10785;50.674;17.954;2023-04-03T00:41:51;2.60;99.90
21255;DHT22;10785;50.674;17.954;2023-04-03T00:44:21;2.60;99.90
21255;DHT22;10785;50.674;17.954;2023-04-03T00:46:50;2.50;99.90
21255;DHT22;10785;50.674;17.954;2023-04-03T00:49:18;2.50;99.90
21255;DHT22;10785;50.674;17.954;2023-04-03T00:51:49;2.50;99.90
21255;DHT22;10785;50.674;17.954;2023-04-03T00:54:18;2.50;99.90
21255;DHT22;10785;50.674;17.954;2023-04-03T00:56:46;2.40;99.90
21255;DHT22;10785;50.674;17.954;2023-04-03T00:59:21;2.40;99.90
21255;DHT22;10785;50.674;17.954;2023-04-03T01:01:53;2.30;99.90
21255;DHT22;10785;50.674;17.954;2023-04-03T01:04:27;2.30;99.90
21255;DHT22;10785;50.674;17.954;2023-04-03T01:06:59;2.20;99.90
21255;DHT22;10785;50.674;17.954;2023-04-03T01:09:29;2.20;99.90
21255;DHT22;10785;50.674;17.954;2023-04-03T01:12:14;2.10;99.90
21255;DHT22;10785;50.674;17.954;2023-04-03T01:14:44;2.10;99.90
21255;DHT22;10785;50.674;17.954;2023-04-03T01:17:32;2.00;99.90
21255;DHT22;10785;50.674;17.954;2023-04-03T01:23:18;1.80;99.90
21255;DHT22;10785;50.674;17.954;2023-04-03T01:25:52;1.80;99.90
21255;DHT22;10785;50.674;17.954;2023-04-03T01:28:23;1.70;99.90
21255;DHT22;10785;50.674;17.954;2023-04-03T01:30:58;1.70;99.90
21255;DHT22;10785;50.674;17.954;2023-04-03T01:33:32;1.60;99.90
21255;DHT22;10785;50.674;17.954;2023-04-03T01:36:01;1.60;99.90
21255;DHT22;10785;50.674;17.954;2023-04-03T01:38:30;1.50;99.90
21255;DHT22;10785;50.674;17.954;2023-04-03T01:40:59;1.50;99.90
21255;DHT22;10785;50.674;17.954;2023-04-03T01:43:28;1.50;99.90
21255;DHT22;10785;50.674;17.954;2023-04-03T01:45:57;1.50;99.90
21255;DHT22;10785;50.674;17.954;2023-04-03T01:48:26;1.50;99.90
21255;DHT22;10785;50.674;17.954;2023-04-03T01:50:56;1.40;99.90
21255;DHT22;10785;50.674;17.954;2023-04-03T01:53:24;1.50;99.90
21255;DHT22;10785;50.674;17.954;2023-04-03T01:55:53;1.40;99.90
21255;DHT22;10785;50.674;17.954;2023-04-03T01:58:22;1.40;99.90
21255;DHT22;10785;50.674;17.954;2023-04-03T02:00:52;1.40;99.90
21255;DHT22;10785;50.674;17.954;2023-04-03T02:03:20;1.40;99.90
21255;DHT22;10785;50.674;17.954;2023-04-03T02:05:49;1.40;99.90
21255;DHT22;10785;50.674;17.954;2023-04-03T02:08:19;1.40;99.90
21255;DHT22;10785;50.674;17.954;2023-04-03T02:10:49;1.30;99.90
21255;DHT22;10785;50.674;17.954;2023-04-03T02:13:18;1.30;99.90
21255;DHT22;10785;50.674;17.954;2023-04-03T02:15:47;1.30;99.90
21255;DHT22;10785;50.674;17.954;2023-04-03T02:18:17;1.20;99.90
21255;DHT22;10785;50.674;17.954;2023-04-03T02:20:46;1.30;99.90
21255;DHT22;10785;50.674;17.954;2023-04-03T02:23:15;1.20;99.90
21255;DHT22;10785;50.674;17.954;2023-04-03T02:25:45;1.20;99.90
21255;DHT22;10785;50.674;17.954;2023-04-03T02:28:16;1.10;99.90
21255;DHT22;10785;50.674;17.954;2023-04-03T02:30:44;1.10;99.90
21255;DHT22;10785;50.674;17.954;2023-04-03T02:33:13;1.00;99.90
21255;DHT22;10785;50.674;17.954;2023-04-03T02:35:42;1.00;99.90
21255;DHT22;10785;50.674;17.954;2023-04-03T02:38:10;1.00;99.90
21255;DHT22;10785;50.674;17.954;2023-04-03T02:40:39;0.90;99.90
21255;DHT22;10785;50.674;17.954;2023-04-03T02:43:09;0.90;99.90
21255;DHT22;10785;50.674;17.954;2023-04-03T02:45:38;0.80;99.90
21255;DHT22;10785;50.674;17.954;2023-04-03T02:48:07;0.80;99.90
21255;DHT22;10785;50.674;17.954;2023-04-03T02:50:35;0.80;99.90
21255;DHT22;10785;50.674;17.954;2023-04-03T02:53:04;0.70;99.90
21255;DHT22;10785;50.674;17.954;2023-04-03T02:55:33;0.70;99.90
21255;DHT22;10785;50.674;17.954;2023-04-03T02:58:02;0.70;99.90
21255;DHT22;10785;50.674;17.954;2023-04-03T03:00:32;0.60;99.90
21255;DHT22;10785;50.674;17.954;2023-04-03T03:03:02;0.60;99.90
21255;DHT22;10785;50.674;17.954;2023-04-03T03:05:31;0.60;99.90
21255;DHT22;10785;50.674;17.954;2023-04-03T03:08:00;0.60;99.90
21255;DHT22;10785;50.674;17.954;2023-04-03T03:10:29;0.50;99.90
21255;DHT22;10785;50.674;17.954;2023-04-03T03:12:57;0.40;99.90
21255;DHT22;10785;50.674;17.954;2023-04-03T03:15:26;0.40;99.90
21255;DHT22;10785;50.674;17.954;2023-04-03T03:17:56;0.40;99.90
21255;DHT22;10785;50.674;17.954;2023-04-03T03:20:25;0.30;99.90
21255;DHT22;10785;50.674;17.954;2023-04-03T03:22:54;0.30;99.90
21255;DHT22;10785;50.674;17.954;2023-04-03T03:25:23;0.30;99.90
21255;DHT22;10785;50.674;17.954;2023-04-03T03:27:51;0.30;99.90
21255;DHT22;10785;50.674;17.954;2023-04-03T03:30:20;0.20;99.90
21255;DHT22;10785;50.674;17.954;2023-04-03T03:32:49;0.20;99.90
21255;DHT22;10785;50.674;17.954;2023-04-03T03:35:19;0.20;99.90
21255;DHT22;10785;50.674;17.954;2023-04-03T03:37:47;0.10;99.90
21255;DHT22;10785;50.674;17.954;2023-04-03T03:40:16;0.10;99.90
21255;DHT22;10785;50.674;17.954;2023-04-03T03:42:45;0.10;99.90
21255;DHT22;10785;50.674;17.954;2023-04-03T03:45:13;0.10;99.90
21255;DHT22;10785;50.674;17.954;2023-04-03T03:47:42;0.00;99.90
21255;DHT22;10785;50.674;17.954;2023-04-03T03:50:12;0.00;99.90
21255;DHT22;10785;50.674;17.954;2023-04-03T03:52:43;0.00;99.90
21255;DHT22;10785;50.674;17.954;2023-04-03T03:55:11;-0.10;99.90
21255;DHT22;10785;50.674;17.954;2023-04-03T03:57:40;0.10;99.90
21255;DHT22;10785;50.674;17.954;2023-04-03T04:00:10;-0.10;99.90
21255;DHT22;10785;50.674;17.954;2023-04-03T04:02:44;-0.10;99.90
21255;DHT22;10785;50.674;17.954;2023-04-03T04:05:17;-0.10;99.90
21255;DHT22;10785;50.674;17.954;2023-04-03T04:07:48;-0.20;99.90
21255;DHT22;10785;50.674;17.954;2023-04-03T04:10:17;-0.20;99.90
21255;DHT22;10785;50.674;17.954;2023-04-03T04:12:46;-0.20;99.90
21255;DHT22;10785;50.674;17.954;2023-04-03T04:15:17;-0.20;99.90
21255;DHT22;10785;50.674;17.954;2023-04-03T04:17:46;-0.20;99.90
21255;DHT22;10785;50.674;17.954;2023-04-03T04:20:15;-0.20;99.90
21255;DHT22;10785;50.674;17.954;2023-04-03T04:22:44;-0.20;99.90
21255;DHT22;10785;50.674;17.954;2023-04-03T04:25:14;-0.20;99.90
21255;DHT22;10785;50.674;17.954;2023-04-03T04:27:43;-0.30;99.90
21255;DHT22;10785;50.674;17.954;2023-04-03T04:30:14;-0.30;99.90
21255;DHT22;10785;50.674;17.954;2023-04-03T04:32:45;-0.30;99.90
21255;DHT22;10785;50.674;17.954;2023-04-03T04:35:14;-0.30;99.90
21255;DHT22;10785;50.674;17.954;2023-04-03T04:37:46;-0.30;99.90
21255;DHT22;10785;50.674;17.954;2023-04-03T04:40:17;-0.30;99.90
21255;DHT22;10785;50.674;17.954;2023-04-03T04:42:46;-0.30;99.90
21255;DHT22;10785;50.674;17.954;2023-04-03T04:45:16;-0.30;99.90
21255;DHT22;10785;50.674;17.954;2023-04-03T04:47:46;-0.30;99.90
21255;DHT22;10785;50.674;17.954;2023-04-03T04:50:15;-0.30;99.90
21255;DHT22;10785;50.674;17.954;2023-04-03T04:52:44;-0.30;99.90
21255;DHT22;10785;50.674;17.954;2023-04-03T04:55:13;-0.30;99.90
21255;DHT22;10785;50.674;17.954;2023-04-03T04:57:43;-0.30;99.90
21255;DHT22;10785;50.674;17.954;2023-04-03T05:00:14;-0.30;99.90
21255;DHT22;10785;50.674;17.954;2023-04-03T05:02:43;0.10;99.90
21255;DHT22;10785;50.674;17.954;2023-04-03T05:05:12;0.50;99.90
21255;DHT22;10785;50.674;17.954;2023-04-03T05:07:41;0.70;99.90
21255;DHT22;10785;50.674;17.954;2023-04-03T05:10:10;0.90;99.90
21255;DHT22;10785;50.674;17.954;2023-04-03T05:12:39;1.40;99.90
21255;DHT22;10785;50.674;17.954;2023-04-03T05:15:10;2.10;99.90
21255;DHT22;10785;50.674;17.954;2023-04-03T05:17:39;2.60;99.90
21255;DHT22;10785;50.674;17.954;2023-04-03T05:20:12;3.30;99.90
21255;DHT22;10785;50.674;17.954;2023-04-03T05:22:42;3.40;99.90
21255;DHT22;10785;50.674;17.954;2023-04-03T05:25:11;3.30;99.90
21255;DHT22;10785;50.674;17.954;2023-04-03T05:27:43;2.90;99.90
21255;DHT22;10785;50.674;17.954;2023-04-03T05:30:14;3.30;99.90
21255;DHT22;10785;50.674;17.954;2023-04-03T05:32:44;3.30;99.90
21255;DHT22;10785;50.674;17.954;2023-04-03T05:35:28;3.10;99.90
21255;DHT22;10785;50.674;17.954;2023-04-03T05:37:59;3.70;99.00
21255;DHT22;10785;50.674;17.954;2023-04-03T05:40:28;4.20;96.80
21255;DHT22;10785;50.674;17.954;2023-04-03T05:42:57;4.40;94.40
21255;DHT22;10785;50.674;17.954;2023-04-03T05:45:31;4.00;94.80
21255;DHT22;10785;50.674;17.954;2023-04-03T05:48:00;4.00;94.50
21255;DHT22;10785;50.674;17.954;2023-04-03T05:50:29;4.00;95.60
21255;DHT22;10785;50.674;17.954;2023-04-03T05:52:59;4.70;93.90
21255;DHT22;10785;50.674;17.954;2023-04-03T05:55:31;5.30;79.80
21255;DHT22;10785;50.674;17.954;2023-04-03T05:58:00;5.00;75.80
21255;DHT22;10785;50.674;17.954;2023-04-03T06:00:28;5.30;79.20
21255;DHT22;10785;50.674;17.954;2023-04-03T06:03:02;5.30;73.30
21255;DHT22;10785;50.674;17.954;2023-04-03T06:05:32;5.80;66.30
21255;DHT22;10785;50.674;17.954;2023-04-03T06:08:00;5.50;62.50
21255;DHT22;10785;50.674;17.954;2023-04-03T06:10:31;4.90;68.70
21255;DHT22;10785;50.674;17.954;2023-04-03T06:12:59;3.80;82.70
21255;DHT22;10785;50.674;17.954;2023-04-03T06:15:28;3.30;95.20
21255;DHT22;10785;50.674;17.954;2023-04-03T06:17:57;3.40;96.50
21255;DHT22;10785;50.674;17.954;2023-04-03T06:20:27;3.20;97.90
21255;DHT22;10785;50.674;17.954;2023-04-03T06:22:56;2.80;99.90
21255;DHT22;10785;50.674;17.954;2023-04-03T06:25:27;2.10;99.90
21255;DHT22;10785;50.674;17.954;2023-04-03T06:27:55;1.90;99.90
21255;DHT22;10785;50.674;17.954;2023-04-03T06:30:24;1.90;99.90
21255;DHT22;10785;50.674;17.954;2023-04-03T06:32:53;1.60;99.90
21255;DHT22;10785;50.674;17.954;2023-04-03T06:35:22;1.60;99.90
21255;DHT22;10785;50.674;17.954;2023-04-03T06:37:54;1.50;99.90
21255;DHT22;10785;50.674;17.954;2023-04-03T06:40:24;1.60;99.90
21255;DHT22;10785;50.674;17.954;2023-04-03T06:42:53;1.80;99.90
21255;DHT22;10785;50.674;17.954;2023-04-03T06:45:22;2.00;99.90
21255;DHT22;10785;50.674;17.954;2023-04-03T06:47:52;1.80;99.90
21255;DHT22;10785;50.674;17.954;2023-04-03T06:50:21;1.80;99.90
21255;DHT22;10785;50.674;17.954;2023-04-03T06:52:50;1.80;99.90
21255;DHT22;10785;50.674;17.954;2023-04-03T06:55:20;2.00;99.90
21255;DHT22;10785;50.674;17.954;2023-04-03T06:57:49;2.40;99.90
21255;DHT22;10785;50.674;17.954;2023-04-03T07:00:18;2.60;99.90
21255;DHT22;10785;50.674;17.954;2023-04-03T07:02:47;2.40;99.90
21255;DHT22;10785;50.674;17.954;2023-04-03T07:05:16;2.40;99.90
21255;DHT22;10785;50.674;17.954;2023-04-03T07:07:45;2.60;99.90
21255;DHT22;10785;50.674;17.954;2023-04-03T07:10:13;2.30;99.90
21255;DHT22;10785;50.674;17.954;2023-04-03T07:12:44;2.20;99.90
21255;DHT22;10785;50.674;17.954;2023-04-03T07:15:13;2.20;99.90
21255;DHT22;10785;50.674;17.954;2023-04-03T07:17:42;2.30;99.90
21255;DHT22;10785;50.674;17.954;2023-04-03T07:20:11;2.50;99.90
21255;DHT22;10785;50.674;17.954;2023-04-03T07:22:40;2.70;99.90
21255;DHT22;10785;50.674;17.954;2023-04-03T07:25:09;2.70;99.90
21255;DHT22;10785;50.674;17.954;2023-04-03T07:27:38;2.90;99.70
21255;DHT22;10785;50.674;17.954;2023-04-03T07:30:09;2.80;96.20
21255;DHT22;10785;50.674;17.954;2023-04-03T07:32:38;2.80;96.40
21255;DHT22;10785;50.674;17.954;2023-04-03T07:35:07;2.60;97.00
21255;DHT22;10785;50.674;17.954;2023-04-03T07:37:36;2.70;96.20
21255;DHT22;10785;50.674;17.954;2023-04-03T07:40:05;2.90;93.60
21255;DHT22;10785;50.674;17.954;2023-04-03T07:42:35;2.90;90.80
21255;DHT22;10785;50.674;17.954;2023-04-03T07:45:05;2.80;89.90
21255;DHT22;10785;50.674;17.954;2023-04-03T07:47:35;2.70;86.30
21255;DHT22;10785;50.674;17.954;2023-04-03T07:50:04;2.60;86.60
21255;DHT22;10785;50.674;17.954;2023-04-03T07:52:33;2.60;91.30
21255;DHT22;10785;50.674;17.954;2023-04-03T07:55:02;2.70;91.90
21255;DHT22;10785;50.674;17.954;2023-04-03T07:57:31;2.90;91.10
21255;DHT22;10785;50.674;17.954;2023-04-03T07:59:59;3.10;88.10
21255;DHT22;10785;50.674;17.954;2023-04-03T08:02:39;3.20;79.30
21255;DHT22;10785;50.674;17.954;2023-04-03T08:05:08;3.30;76.90
21255;DHT22;10785;50.674;17.954;2023-04-03T08:07:37;3.10;68.50
21255;DHT22;10785;50.674;17.954;2023-04-03T08:10:07;3.10;78.40
21255;DHT22;10785;50.674;17.954;2023-04-03T08:12:35;3.10;79.90
21255;DHT22;10785;50.674;17.954;2023-04-03T08:15:11;3.20;75.40
21255;DHT22;10785;50.674;17.954;2023-04-03T08:17:41;3.20;73.40
21255;DHT22;10785;50.674;17.954;2023-04-03T08:20:10;3.10;71.50
21255;DHT22;10785;50.674;17.954;2023-04-03T08:22:39;3.20;65.60
21255;DHT22;10785;50.674;17.954;2023-04-03T08:25:09;3.20;69.00
21255;DHT22;10785;50.674;17.954;2023-04-03T08:27:37;3.30;62.60
21255;DHT22;10785;50.674;17.954;2023-04-03T08:30:07;3.20;64.20
21255;DHT22;10785;50.674;17.954;2023-04-03T08:32:37;3.20;70.10
21255;DHT22;10785;50.674;17.954;2023-04-03T08:35:08;3.40;68.80
21255;DHT22;10785;50.674;17.954;2023-04-03T08:37:38;3.60;61.20
21255;DHT22;10785;50.674;17.954;2023-04-03T08:40:12;3.70;54.80
21255;DHT22;10785;50.674;17.954;2023-04-03T08:42:48;3.60;50.20
21255;DHT22;10785;50.674;17.954;2023-04-03T08:45:25;3.70;51.80
21255;DHT22;10785;50.674;17.954;2023-04-03T08:47:58;3.80;43.60
21255;DHT22;10785;50.674;17.954;2023-04-03T08:50:33;3.80;39.00
21255;DHT22;10785;50.674;17.954;2023-04-03T08:53:04;3.80;40.70
21255;DHT22;10785;50.674;17.954;2023-04-03T08:55:37;4.00;35.20
21255;DHT22;10785;50.674;17.954;2023-04-03T08:58:12;4.20;38.60
21255;DHT22;10785;50.674;17.954;2023-04-03T09:00:47;3.90;29.50
21255;DHT22;10785;50.674;17.954;2023-04-03T09:03:19;3.90;33.60
21255;DHT22;10785;50.674;17.954;2023-04-03T09:05:53;3.90;27.60
21255;DHT22;10785;50.674;17.954;2023-04-03T09:08:24;3.90;28.00
21255;DHT22;10785;50.674;17.954;2023-04-03T09:11:04;3.70;25.40
21255;DHT22;10785;50.674;17.954;2023-04-03T09:13:40;3.50;23.20
21255;DHT22;10785;50.674;17.954;2023-04-03T09:16:20;3.30;23.70
21255;DHT22;10785;50.674;17.954;2023-04-03T09:18:59;3.30;25.50
21255;DHT22;10785;50.674;17.954;2023-04-03T09:21:36;3.50;27.70
21255;DHT22;10785;50.674;17.954;2023-04-03T09:24:10;3.50;27.50
21255;DHT22;10785;50.674;17.954;2023-04-03T09:26:43;3.60;27.90
21255;DHT22;10785;50.674;17.954;2023-04-03T09:29:17;3.90;25.20
21255;DHT22;10785;50.674;17.954;2023-04-03T09:31:48;3.70;24.00
21255;DHT22;10785;50.674;17.954;2023-04-03T09:34:22;3.50;23.60
21255;DHT22;10785;50.674;17.954;2023-04-03T09:36:54;3.60;25.70
21255;DHT22;10785;50.674;17.954;2023-04-03T09:39:25;3.70;25.40
21255;DHT22;10785;50.674;17.954;2023-04-03T09:42:01;3.70;23.70
21255;DHT22;10785;50.674;17.954;2023-04-03T09:44:31;3.60;22.40
21255;DHT22;10785;50.674;17.954;2023-04-03T09:47:22;3.30;22.80
21255;DHT22;10785;50.674;17.954;2023-04-03T09:50:10;3.70;23.20
21255;DHT22;10785;50.674;17.954;2023-04-03T09:52:49;4.00;21.40
21255;DHT22;10785;50.674;17.954;2023-04-03T09:55:20;4.30;20.90
21255;DHT22;10785;50.674;17.954;2023-04-03T09:57:54;4.30;18.80
21255;DHT22;10785;50.674;17.954;2023-04-03T10:00:26;4.00;17.50
21255;DHT22;10785;50.674;17.954;2023-04-03T10:02:56;4.00;17.60
21255;DHT22;10785;50.674;17.954;2023-04-03T10:05:29;4.20;16.70
21255;DHT22;10785;50.674;17.954;2023-04-03T10:08:15;4.20;17.40
21255;DHT22;10785;50.674;17.954;2023-04-03T10:10:50;4.20;15.20
21255;DHT22;10785;50.674;17.954;2023-04-03T10:13:33;4.10;15.50
21255;DHT22;10785;50.674;17.954;2023-04-03T10:16:18;4.30;15.90
21255;DHT22;10785;50.674;17.954;2023-04-03T10:18:59;4.70;17.80
21255;DHT22;10785;50.674;17.954;2023-04-03T10:21:38;4.50;15.30
21255;DHT22;10785;50.674;17.954;2023-04-03T10:24:12;4.20;12.50
21255;DHT22;10785;50.674;17.954;2023-04-03T10:26:48;4.40;13.90
21255;DHT22;10785;50.674;17.954;2023-04-03T10:29:39;4.70;13.90
21255;DHT22;10785;50.674;17.954;2023-04-03T10:32:26;4.60;12.40
21255;DHT22;10785;50.674;17.954;2023-04-03T10:35:04;4.60;12.20
21255;DHT22;10785;50.674;17.954;2023-04-03T10:37:48;4.50;14.40
21255;DHT22;10785;50.674;17.954;2023-04-03T10:40:30;4.60;17.90
21255;DHT22;10785;50.674;17.954;2023-04-03T10:43:08;4.40;19.30
21255;DHT22;10785;50.674;17.954;2023-04-03T10:45:52;4.30;18.30
21255;DHT22;10785;50.674;17.954;2023-04-03T10:48:33;4.10;18.30
21255;DHT22;10785;50.674;17.954;2023-04-03T10:51:17;3.90;16.90
21255;DHT22;10785;50.674;17.954;2023-04-03T10:53:55;3.90;16.50
21255;DHT22;10785;50.674;17.954;2023-04-03T10:56:31;4.00;14.00
21255;DHT22;10785;50.674;17.954;2023-04-03T10:59:10;3.90;16.30
21255;DHT22;10785;50.674;17.954;2023-04-03T11:01:45;4.00;14.80
21255;DHT22;10785;50.674;17.954;2023-04-03T11:04:16;3.90;13.60
21255;DHT22;10785;50.674;17.954;2023-04-03T11:06:51;4.00;13.30
21255;DHT22;10785;50.674;17.954;2023-04-03T11:09:25;4.40;12.20
21255;DHT22;10785;50.674;17.954;2023-04-03T11:12:00;4.60;12.00
21255;DHT22;10785;50.674;17.954;2023-04-03T11:14:31;4.70;12.60
21255;DHT22;10785;50.674;17.954;2023-04-03T11:17:09;4.70;12.90
21255;DHT22;10785;50.674;17.954;2023-04-03T11:19:44;5.00;15.00
21255;DHT22;10785;50.674;17.954;2023-04-03T11:22:22;4.90;11.80
21255;DHT22;10785;50.674;17.954;2023-04-03T11:24:57;4.40;10.70
21255;DHT22;10785;50.674;17.954;2023-04-03T11:27:35;4.10;13.00
21255;DHT22;10785;50.674;17.954;2023-04-03T11:30:09;4.20;11.30
21255;DHT22;10785;50.674;17.954;2023-04-03T11:32:53;4.50;12.10
21255;DHT22;10785;50.674;17.954;2023-04-03T11:35:26;5.00;10.50
21255;DHT22;10785;50.674;17.954;2023-04-03T11:37:55;5.10;8.70
21255;DHT22;10785;50.674;17.954;2023-04-03T11:40:26;4.80;7.60
21255;DHT22;10785;50.674;17.954;2023-04-03T11:43:07;4.50;6.00
21255;DHT22;10785;50.674;17.954;2023-04-03T11:45:38;4.60;9.10
21255;DHT22;10785;50.674;17.954;2023-04-03T11:48:43;4.60;8.80
21255;DHT22;10785;50.674;17.954;2023-04-03T11:51:38;4.80;8.10
21255;DHT22;10785;50.674;17.954;2023-04-03T11:57:44;5.00;8.00
21255;DHT22;10785;50.674;17.954;2023-04-03T12:00:53;4.80;8.50
21255;DHT22;10785;50.674;17.954;2023-04-03T12:09:57;5.00;7.20
21255;DHT22;10785;50.674;17.954;2023-04-03T12:12:38;4.50;5.70
21255;DHT22;10785;50.674;17.954;2023-04-03T12:19:00;4.30;7.30
21255;DHT22;10785;50.674;17.954;2023-04-03T12:22:11;4.90;9.10
21255;DHT22;10785;50.674;17.954;2023-04-03T12:24:40;5.20;7.50
21255;DHT22;10785;50.674;17.954;2023-04-03T12:27:20;4.90;5.00
21255;DHT22;10785;50.674;17.954;2023-04-03T12:29:54;4.70;6.70
21255;DHT22;10785;50.674;17.954;2023-04-03T12:32:41;4.80;8.20
21255;DHT22;10785;50.674;17.954;2023-04-03T12:35:21;4.90;5.10
21255;DHT22;10785;50.674;17.954;2023-04-03T12:41:01;5.40;2.70
21255;DHT22;10785;50.674;17.954;2023-04-03T12:43:43;5.30;1.00
21255;DHT22;10785;50.674;17.954;2023-04-03T12:46:18;5.10;1.00
21255;DHT22;10785;50.674;17.954;2023-04-03T12:48:51;5.10;1.00
21255;DHT22;10785;50.674;17.954;2023-04-03T12:51:27;5.20;1.00
21255;DHT22;10785;50.674;17.954;2023-04-03T12:54:01;5.20;1.00
21255;DHT22;10785;50.674;17.954;2023-04-03T12:56:31;5.30;2.50
21255;DHT22;10785;50.674;17.954;2023-04-03T12:59:14;5.40;1.60
21255;DHT22;10785;50.674;17.954;2023-04-03T13:01:43;5.30;1.80
21255;DHT22;10785;50.674;17.954;2023-04-03T13:04:12;5.30;1.60
21255;DHT22;10785;50.674;17.954;2023-04-03T13:06:43;5.00;1.40
21255;DHT22;10785;50.674;17.954;2023-04-03T13:09:20;5.00;1.00
21255;DHT22;10785;50.674;17.954;2023-04-03T13:11:53;5.20;1.00
21255;DHT22;10785;50.674;17.954;2023-04-03T13:14:26;5.30;1.00
21255;DHT22;10785;50.674;17.954;2023-04-03T13:16:57;5.40;1.00
21255;DHT22;10785;50.674;17.954;2023-04-03T13:19:27;5.30;1.00
21255;DHT22;10785;50.674;17.954;2023-04-03T13:22:01;5.10;1.00
21255;DHT22;10785;50.674;17.954;2023-04-03T13:24:34;5.00;1.00
21255;DHT22;10785;50.674;17.954;2023-04-03T13:27:06;5.00;1.00
21255;DHT22;10785;50.674;17.954;2023-04-03T13:29:36;5.40;1.00
21255;DHT22;10785;50.674;17.954;2023-04-03T13:32:06;5.70;1.00
21255;DHT22;10785;50.674;17.954;2023-04-03T13:34:37;5.40;1.00
21255;DHT22;10785;50.674;17.954;2023-04-03T13:37:19;5.30;1.00
21255;DHT22;10785;50.674;17.954;2023-04-03T13:39:58;5.20;1.00
21255;DHT22;10785;50.674;17.954;2023-04-03T13:42:28;5.00;1.00
21255;DHT22;10785;50.674;17.954;2023-04-03T13:45:17;5.10;1.00
21255;DHT22;10785;50.674;17.954;2023-04-03T13:47:48;4.90;1.00
21255;DHT22;10785;50.674;17.954;2023-04-03T13:50:19;4.80;1.00
21255;DHT22;10785;50.674;17.954;2023-04-03T13:52:54;4.90;1.00
21255;DHT22;10785;50.674;17.954;2023-04-03T13:55:25;4.80;1.00
21255;DHT22;10785;50.674;17.954;2023-04-03T13:57:57;4.80;1.00
21255;DHT22;10785;50.674;17.954;2023-04-03T14:00:34;5.00;1.00
21255;DHT22;10785;50.674;17.954;2023-04-03T14:03:13;5.10;1.00
21255;DHT22;10785;50.674;17.954;2023-04-03T14:05:42;5.40;1.00
21255;DHT22;10785;50.674;17.954;2023-04-03T14:08:13;5.10;1.00
21255;DHT22;10785;50.674;17.954;2023-04-03T14:10:43;5.00;1.00
21255;DHT22;10785;50.674;17.954;2023-04-03T14:13:14;4.90;1.00
21255;DHT22;10785;50.674;17.954;2023-04-03T14:15:44;5.00;1.00
21255;DHT22;10785;50.674;17.954;2023-04-03T14:18:14;5.00;1.00
21255;DHT22;10785;50.674;17.954;2023-04-03T14:20:43;5.00;1.00
21255;DHT22;10785;50.674;17.954;2023-04-03T14:23:13;4.90;1.30
21255;DHT22;10785;50.674;17.954;2023-04-03T14:25:42;4.90;2.50
21255;DHT22;10785;50.674;17.954;2023-04-03T14:31:12;5.20;1.00
21255;DHT22;10785;50.674;17.954;2023-04-03T14:33:42;5.00;1.00
21255;DHT22;10785;50.674;17.954;2023-04-03T14:36:13;4.90;1.00
21255;DHT22;10785;50.674;17.954;2023-04-03T14:38:44;4.90;1.00
21255;DHT22;10785;50.674;17.954;2023-04-03T14:41:14;5.00;2.60
21255;DHT22;10785;50.674;17.954;2023-04-03T14:43:44;5.00;1.80
21255;DHT22;10785;50.674;17.954;2023-04-03T14:46:14;4.80;1.00
21255;DHT22;10785;50.674;17.954;2023-04-03T14:48:44;4.60;1.00
21255;DHT22;10785;50.674;17.954;2023-04-03T14:51:14;4.70;1.00
21255;DHT22;10785;50.674;17.954;2023-04-03T14:53:44;4.80;1.30
21255;DHT22;10785;50.674;17.954;2023-04-03T14:56:24;5.00;1.60
21255;DHT22;10785;50.674;17.954;2023-04-03T15:53:35;4.30;2.40
21255;DHT22;10785;50.674;17.954;2023-04-03T15:56:04;4.30;1.00
21255;DHT22;10785;50.674;17.954;2023-04-03T15:58:35;4.30;1.60
21255;DHT22;10785;50.674;17.954;2023-04-03T16:01:04;4.20;3.00
21255;DHT22;10785;50.674;17.954;2023-04-03T16:03:33;4.30;4.20
21255;DHT22;10785;50.674;17.954;2023-04-03T16:06:03;4.20;6.00
21255;DHT22;10785;50.674;17.954;2023-04-03T16:08:31;4.20;1.00
21255;DHT22;10785;50.674;17.954;2023-04-03T16:11:01;4.10;1.00
21255;DHT22;10785;50.674;17.954;2023-04-03T16:13:30;4.10;1.00
21255;DHT22;10785;50.674;17.954;2023-04-03T16:16:02;4.10;1.00
21255;DHT22;10785;50.674;17.954;2023-04-03T16:18:34;4.00;1.00
21255;DHT22;10785;50.674;17.954;2023-04-03T16:21:04;4.00;1.50
21255;DHT22;10785;50.674;17.954;2023-04-03T16:23:35;4.00;2.90
21255;DHT22;10785;50.674;17.954;2023-04-03T16:26:05;3.90;4.00
21255;DHT22;10785;50.674;17.954;2023-04-03T16:28:33;3.90;5.60
21255;DHT22;10785;50.674;17.954;2023-04-03T16:31:02;3.90;6.30
21255;DHT22;10785;50.674;17.954;2023-04-03T16:33:31;3.90;6.80
21255;DHT22;10785;50.674;17.954;2023-04-03T16:36:00;3.80;6.80
21255;DHT22;10785;50.674;17.954;2023-04-03T16:38:29;3.80;7.30
21255;DHT22;10785;50.674;17.954;2023-04-03T16:40:58;3.80;7.90
21255;DHT22;10785;50.674;17.954;2023-04-03T16:43:33;3.80;8.30
21255;DHT22;10785;50.674;17.954;2023-04-03T16:46:02;3.80;8.00
21255;DHT22;10785;50.674;17.954;2023-04-03T16:48:31;3.80;8.90
21255;DHT22;10785;50.674;17.954;2023-04-03T16:51:00;3.70;8.40
21255;DHT22;10785;50.674;17.954;2023-04-03T16:53:29;3.70;9.20
21255;DHT22;10785;50.674;17.954;2023-04-03T16:55:58;3.70;9.20
21255;DHT22;10785;50.674;17.954;2023-04-03T16:58:27;3.70;9.60
21255;DHT22;10785;50.674;17.954;2023-04-03T17:00:57;3.70;9.20
21255;DHT22;10785;50.674;17.954;2023-04-03T17:03:25;3.60;9.40
21255;DHT22;10785;50.674;17.954;2023-04-03T17:05:56;3.70;11.20
21255;DHT22;10785;50.674;17.954;2023-04-03T17:08:24;3.60;12.70
21255;DHT22;10785;50.674;17.954;2023-04-03T17:10:53;3.60;13.80
21255;DHT22;10785;50.674;17.954;2023-04-03T17:13:22;3.50;13.50
21255;DHT22;10785;50.674;17.954;2023-04-03T17:16:00;3.50;13.10
21255;DHT22;10785;50.674;17.954;2023-04-03T17:18:30;3.50;12.90
21255;DHT22;10785;50.674;17.954;2023-04-03T17:20:59;3.50;13.70
21255;DHT22;10785;50.674;17.954;2023-04-03T17:23:28;3.50;13.80